^^
Datos históricos de la estación: Murcia-Puente Tocinos
Diario Informe para Abril 25, 2019 Unidades:  Ambas    Ingés   Métrico
Diario Semanal Mensual Anual
  Máxima: Mínima: Promedio:
Temperatura: 93.4 °F /  34.1 °C 74.5 °F /  23.6 °C 83.7 °F /  28.7 °C
Punto de rocio: 72.7 °F /  22.6 °C 52.5 °F /  11.4 °C 61 °F /  16.1 °C
Humedad: 82% 29% 49%
Velocidad viento: 12.3mph /  19.8km/h - 5.4mph /  8.7km/h
Racha viento: 20.8mph /  33.5km/h - -
Viento- - ESE
Presión: 29.9 in /  1013.4 hPa 29.8 in /  1009.9 hPa -
Precipitación: 0 in /  0.0 mm    
 
 
Tabla de datos para Abril 25, 2019
Hora Temperatura Punto de rocio Presión Viento Velocidad viento Racha viento Humedad Intensidad lluvia(por hora) Nubes
00:04 80.2 °F /  26.8 °C 66.9 °F /  19.4 °C 29.9in /  1013.3hPa NE 4.3mph /  6.9km/h 5.8mph /  9.3km/h 64% 0in /  0.0mm
00:09 80.2 °F /  26.8 °C 66.9 °F /  19.4 °C 29.9in /  1013.3hPa NE 4.3mph /  6.9km/h 8.1mph /  13km/h 64% 0in /  0.0mm
00:14 80.1 °F /  26.7 °C 66.4 °F /  19.1 °C 29.9in /  1013.3hPa NNE 4.3mph /  6.9km/h 8.1mph /  13km/h 63% 0in /  0.0mm
00:19 80.1 °F /  26.7 °C 66.4 °F /  19.1 °C 29.9in /  1013.2hPa NE 5.2mph /  8.4km/h 11.5mph /  18.5km/h 63% 0in /  0.0mm
00:24 80.2 °F /  26.8 °C 66.6 °F /  19.2 °C 29.9in /  1013.2hPa NNE 5.2mph /  8.4km/h 8.1mph /  13km/h 63% 0in /  0.0mm
00:29 80.1 °F /  26.7 °C 66.7 °F /  19.3 °C 29.9in /  1013.2hPa ENE 6.2mph /  10km/h 8.1mph /  13km/h 64% 0in /  0.0mm
00:34 79.9 °F /  26.6 °C 67.5 °F /  19.7 °C 29.9in /  1013.3hPa NE 6.2mph /  10km/h 6.9mph /  11.1km/h 66% 0in /  0.0mm
00:39 79.7 °F /  26.5 °C 67.8 °F /  19.9 °C 29.9in /  1013.3hPa NNE 5.4mph /  8.7km/h 6.9mph /  11.1km/h 67% 0in /  0.0mm
00:44 79.5 °F /  26.4 °C 68 °F /  20 °C 29.9in /  1013.3hPa NE 5.4mph /  8.7km/h 4.7mph /  7.6km/h 68% 0in /  0.0mm
00:49 79.3 °F /  26.3 °C 67.8 °F /  19.9 °C 29.9in /  1013.3hPa NNE 4.7mph /  7.6km/h 6.9mph /  11.1km/h 68% 0in /  0.0mm
00:54 79.2 °F /  26.2 °C 68.2 °F /  20.1 °C 29.9in /  1013.3hPa NE 4.7mph /  7.6km/h 4.6mph /  7.4km/h 69% 0in /  0.0mm
00:59 79 °F /  26.1 °C 68.4 °F /  20.2 °C 29.9in /  1013.3hPa NNE 3.1mph /  5km/h 4.6mph /  7.4km/h 70% 0in /  0.0mm
01:04 78.6 °F /  25.9 °C 68.4 °F /  20.2 °C 29.9in /  1013.4hPa NE 3.1mph /  5km/h 5.8mph /  9.3km/h 71% 0in /  0.0mm
01:09 78.6 °F /  25.9 °C 68.4 °F /  20.2 °C 29.9in /  1013.4hPa North 2.9mph /  4.7km/h 2.3mph /  3.7km/h 71% 0in /  0.0mm
01:14 78.4 °F /  25.8 °C 68.4 °F /  20.2 °C 29.9in /  1013.4hPa NNO 2.9mph /  4.7km/h 3.5mph /  5.6km/h 71% 0in /  0.0mm
01:19 78.4 °F /  25.8 °C 68.4 °F /  20.2 °C 29.9in /  1013.4hPa NNO 1.8mph /  2.9km/h 1.4mph /  2.3km/h 71% 0in /  0.0mm
01:24 78.3 °F /  25.7 °C 68.2 °F /  20.1 °C 29.9in /  1013.4hPa NNO 1.8mph /  2.9km/h 4.6mph /  7.4km/h 71% 0in /  0.0mm
01:29 78.1 °F /  25.6 °C 67.8 °F /  19.9 °C 29.9in /  1013.4hPa NNO 1.4mph /  2.3km/h 2.3mph /  3.7km/h 71% 0in /  0.0mm
01:34 78.1 °F /  25.6 °C 67.8 °F /  19.9 °C 29.9in /  1013.3hPa NNO 1.4mph /  2.3km/h 2.3mph /  3.7km/h 71% 0in /  0.0mm
01:39 77.9 °F /  25.5 °C 68.2 °F /  20.1 °C 29.9in /  1013.3hPa Calm     72% 0in /  0.0mm
01:44 77.9 °F /  25.5 °C 68.2 °F /  20.1 °C 29.9in /  1013.3hPa Calm     72% 0in /  0.0mm
01:49 77.7 °F /  25.4 °C 68 °F /  20 °C 29.9in /  1013.3hPa Calm     72% 0in /  0.0mm
01:54 77.7 °F /  25.4 °C 68.4 °F /  20.2 °C 29.9in /  1013.3hPa Calm     73% 0in /  0.0mm
01:59 77.7 °F /  25.4 °C 68.4 °F /  20.2 °C 29.9in /  1013.3hPa Calm   3.5mph /  5.6km/h 73% 0in /  0.0mm
02:04 77.5 °F /  25.3 °C 68.2 °F /  20.1 °C 29.9in /  1013.3hPa Calm   2.3mph /  3.7km/h 73% 0in /  0.0mm
02:09 77.5 °F /  25.3 °C 68.2 °F /  20.1 °C 29.9in /  1013.3hPa ONO 1.8mph /  2.9km/h 3.5mph /  5.6km/h 73% 0in /  0.0mm
02:14 77.5 °F /  25.3 °C 68.5 °F /  20.3 °C 29.9in /  1013.3hPa NO 1.8mph /  2.9km/h   74% 0in /  0.0mm
02:19 77.5 °F /  25.3 °C 68.5 °F /  20.3 °C 29.9in /  1013.3hPa Calm     74% 0in /  0.0mm
02:24 77.5 °F /  25.3 °C 68.5 °F /  20.3 °C 29.9in /  1013.3hPa Calm     74% 0in /  0.0mm
02:29 77.5 °F /  25.3 °C 68.5 °F /  20.3 °C 29.9in /  1013.3hPa Calm     74% 0in /  0.0mm
02:34 77.5 °F /  25.3 °C 68.2 °F /  20.1 °C 29.9in /  1013.3hPa Calm     73% 0in /  0.0mm
02:39 77.5 °F /  25.3 °C 68.5 °F /  20.3 °C 29.9in /  1013.3hPa Calm     74% 0in /  0.0mm
02:44 77.5 °F /  25.3 °C 68.2 °F /  20.1 °C 29.9in /  1013.3hPa Calm   2.3mph /  3.7km/h 73% 0in /  0.0mm
02:49 77.4 °F /  25.2 °C 68 °F /  20 °C 29.9in /  1013.1hPa Calm   2.3mph /  3.7km/h 73% 0in /  0.0mm
02:54 77.2 °F /  25.1 °C 67.8 °F /  19.9 °C 29.9in /  1013.1hPa Calm   1.2mph /  1.9km/h 73% 0in /  0.0mm
02:59 77.2 °F /  25.1 °C 68.2 °F /  20.1 °C 29.9in /  1013.1hPa Calm   1.2mph /  1.9km/h 74% 0in /  0.0mm
03:04 77 °F /  25 °C 68.2 °F /  20.1 °C 29.9in /  1013.1hPa Calm     74% 0in /  0.0mm
03:09 77 °F /  25 °C 67.6 °F /  19.8 °C 29.9in /  1013.1hPa Calm     73% 0in /  0.0mm
03:14 76.8 °F /  24.9 °C 66.7 °F /  19.3 °C 29.9in /  1013.1hPa Calm   3.5mph /  5.6km/h 71% 0in /  0.0mm
03:19 76.6 °F /  24.8 °C 66.6 °F /  19.2 °C 29.9in /  1013.0hPa ESE 1.4mph /  2.3km/h 2.3mph /  3.7km/h 71% 0in /  0.0mm
03:24 76.6 °F /  24.8 °C 66.9 °F /  19.4 °C 29.9in /  1013.0hPa ESE 1.4mph /  2.3km/h 2.3mph /  3.7km/h 72% 0in /  0.0mm
03:29 76.6 °F /  24.8 °C 67.3 °F /  19.6 °C 29.9in /  1013.0hPa ESE 1.4mph /  2.3km/h 4.6mph /  7.4km/h 73% 0in /  0.0mm
03:34 76.6 °F /  24.8 °C 67.3 °F /  19.6 °C 29.9in /  1012.9hPa SE 1.4mph /  2.3km/h 3.5mph /  5.6km/h 73% 0in /  0.0mm
03:39 76.6 °F /  24.8 °C 66.9 °F /  19.4 °C 29.9in /  1012.9hPa SSE 2.4mph /  3.9km/h 3.5mph /  5.6km/h 72% 0in /  0.0mm
03:44 76.6 °F /  24.8 °C 66.6 °F /  19.2 °C 29.9in /  1012.9hPa SE 2.4mph /  3.9km/h 4.6mph /  7.4km/h 71% 0in /  0.0mm
03:49 76.6 °F /  24.8 °C 65.7 °F /  18.7 °C 29.9in /  1012.9hPa ESE 2.4mph /  3.9km/h 3.5mph /  5.6km/h 69% 0in /  0.0mm
03:54 76.6 °F /  24.8 °C 65.3 °F /  18.5 °C 29.9in /  1012.9hPa SE 2.4mph /  3.9km/h 3.5mph /  5.6km/h 68% 0in /  0.0mm
03:59 76.6 °F /  24.8 °C 64.9 °F /  18.3 °C 29.9in /  1012.9hPa SE 2.4mph /  3.9km/h 3.6mph /  5.8km/h 67% 0in /  0.0mm
04:04 76.5 °F /  24.7 °C 63.9 °F /  17.7 °C 29.9in /  1012.7hPa ESE 2.4mph /  3.9km/h 3.5mph /  5.6km/h 65% 0in /  0.0mm
04:09 76.3 °F /  24.6 °C 63.7 °F /  17.6 °C 29.9in /  1012.7hPa ESE 2mph /  3.2km/h 3.5mph /  5.6km/h 65% 0in /  0.0mm
04:14 76.1 °F /  24.5 °C 63 °F /  17.2 °C 29.9in /  1012.7hPa SE 2mph /  3.2km/h 2.3mph /  3.7km/h 64% 0in /  0.0mm
04:19 76.1 °F /  24.5 °C 63.5 °F /  17.5 °C 29.9in /  1012.5hPa SE 1.4mph /  2.3km/h 3.5mph /  5.6km/h 65% 0in /  0.0mm
04:24 76.1 °F /  24.5 °C 63 °F /  17.2 °C 29.9in /  1012.5hPa SE 1.4mph /  2.3km/h 2.9mph /  4.7km/h 64% 0in /  0.0mm
04:29 76.3 °F /  24.6 °C 63.1 °F /  17.3 °C 29.9in /  1012.5hPa SE 1.8mph /  2.9km/h 1.2mph /  1.9km/h 64% 0in /  0.0mm
04:34 76.3 °F /  24.6 °C 63.1 °F /  17.3 °C 29.9in /  1012.5hPa SSE 1.8mph /  2.9km/h 3.1mph /  5km/h 64% 0in /  0.0mm
04:39 76.3 °F /  24.6 °C 63.1 °F /  17.3 °C 29.9in /  1012.5hPa SSE 1.4mph /  2.3km/h 2.4mph /  3.9km/h 64% 0in /  0.0mm
04:44 76.1 °F /  24.5 °C 63 °F /  17.2 °C 29.9in /  1012.5hPa Sur 1.4mph /  2.3km/h 4mph /  6.4km/h 64% 0in /  0.0mm
04:49 76.1 °F /  24.5 °C 62.6 °F /  17 °C 29.9in /  1012.3hPa Sur 2.9mph /  4.7km/h 4.6mph /  7.4km/h 63% 0in /  0.0mm
04:54 75.9 °F /  24.4 °C 62.4 °F /  16.9 °C 29.9in /  1012.3hPa Sur 2.9mph /  4.7km/h 4.6mph /  7.4km/h 63% 0in /  0.0mm
04:59 76.1 °F /  24.5 °C 62.1 °F /  16.7 °C 29.9in /  1012.3hPa Sur 2.9mph /  4.7km/h 4.6mph /  7.4km/h 62% 0in /  0.0mm
05:04 75.9 °F /  24.4 °C 62.1 °F /  16.7 °C 29.9in /  1012.3hPa SO 2.9mph /  4.7km/h 6.9mph /  11.1km/h 62% 0in /  0.0mm
05:09 75.9 °F /  24.4 °C 62.1 °F /  16.7 °C 29.9in /  1012.3hPa SO 4mph /  6.4km/h 5.8mph /  9.3km/h 62% 0in /  0.0mm
05:14 75.9 °F /  24.4 °C 62.1 °F /  16.7 °C 29.9in /  1012.3hPa OSO 4mph /  6.4km/h 4.6mph /  7.4km/h 62% 0in /  0.0mm
05:19 76.1 °F /  24.5 °C 61.7 °F /  16.5 °C 29.9in /  1012.2hPa SO 2.9mph /  4.7km/h 3.5mph /  5.6km/h 61% 0in /  0.0mm
05:24 75.9 °F /  24.4 °C 61.5 °F /  16.4 °C 29.9in /  1012.2hPa SO 2.9mph /  4.7km/h 4.7mph /  7.6km/h 61% 0in /  0.0mm
05:29 75.9 °F /  24.4 °C 61 °F /  16.1 °C 29.9in /  1012.2hPa SO 3.1mph /  5km/h 4.7mph /  7.6km/h 60% 0in /  0.0mm
05:34 75.9 °F /  24.4 °C 61 °F /  16.1 °C 29.9in /  1012.3hPa OSO 3.1mph /  5km/h 8.1mph /  13km/h 60% 0in /  0.0mm
05:39 75.7 °F /  24.3 °C 60.4 °F /  15.8 °C 29.9in /  1012.3hPa OSO 4.7mph /  7.6km/h 5.8mph /  9.3km/h 59% 0in /  0.0mm
05:44 75.6 °F /  24.2 °C 60.3 °F /  15.7 °C 29.9in /  1012.3hPa SO 4.7mph /  7.6km/h 8.1mph /  13km/h 59% 0in /  0.0mm
05:49 75.6 °F /  24.2 °C 60.3 °F /  15.7 °C 29.9in /  1012.3hPa OSO 4.7mph /  7.6km/h 5.8mph /  9.3km/h 59% 0in /  0.0mm
05:54 75.6 °F /  24.2 °C 60.3 °F /  15.7 °C 29.9in /  1012.3hPa OSO 4.7mph /  7.6km/h 6.9mph /  11.1km/h 59% 0in /  0.0mm
05:59 75.4 °F /  24.1 °C 60.1 °F /  15.6 °C 29.9in /  1012.3hPa SO 4.7mph /  7.6km/h 6.9mph /  11.1km/h 59% 0in /  0.0mm
06:04 75.2 °F /  24 °C 59.4 °F /  15.2 °C 29.9in /  1012.3hPa SO 4.7mph /  7.6km/h 5.8mph /  9.3km/h 58% 0in /  0.0mm
06:09 75.2 °F /  24 °C 59.4 °F /  15.2 °C 29.9in /  1012.3hPa SO 4.3mph /  6.9km/h 6.9mph /  11.1km/h 58% 0in /  0.0mm
06:14 75.2 °F /  24 °C 58.8 °F /  14.9 °C 29.9in /  1012.3hPa SO 4.3mph /  6.9km/h 5.2mph /  8.4km/h 57% 0in /  0.0mm
06:19 75.2 °F /  24 °C 58.5 °F /  14.7 °C 29.9in /  1012.5hPa SO 4.3mph /  6.9km/h 6.9mph /  11.1km/h 56% 0in /  0.0mm
06:24 75.2 °F /  24 °C 57.9 °F /  14.4 °C 29.9in /  1012.5hPa SO 4.3mph /  6.9km/h 6.9mph /  11.1km/h 55% 0in /  0.0mm
06:29 75.2 °F /  24 °C 57.9 °F /  14.4 °C 29.9in /  1012.5hPa SSO 4.3mph /  6.9km/h 5.8mph /  9.3km/h 55% 0in /  0.0mm
06:34 75.2 °F /  24 °C 57.9 °F /  14.4 °C 29.9in /  1012.5hPa SO 4.3mph /  6.9km/h 5.8mph /  9.3km/h 55% 0in /  0.0mm
06:39 75.2 °F /  24 °C 57.4 °F /  14.1 °C 29.9in /  1012.5hPa SO 3.6mph /  5.8km/h 4.7mph /  7.6km/h 54% 0in /  0.0mm
06:44 75.2 °F /  24 °C 57.4 °F /  14.1 °C 29.9in /  1012.5hPa SO 3.6mph /  5.8km/h 5.8mph /  9.3km/h 54% 0in /  0.0mm
06:49 75.2 °F /  24 °C 57.4 °F /  14.1 °C 29.9in /  1012.5hPa Oeste 3.6mph /  5.8km/h 2.3mph /  3.7km/h 54% 0in /  0.0mm
06:54 75.2 °F /  24 °C 57.4 °F /  14.1 °C 29.9in /  1012.5hPa OSO 3.6mph /  5.8km/h 4.6mph /  7.4km/h 54% 0in /  0.0mm
06:59 75 °F /  23.9 °C 56.7 °F /  13.7 °C 29.9in /  1012.5hPa Oeste 2.4mph /  3.9km/h 4.6mph /  7.4km/h 53% 0in /  0.0mm
07:04 74.8 °F /  23.8 °C 56.7 °F /  13.7 °C 29.9in /  1012.5hPa OSO 2.4mph /  3.9km/h 4.6mph /  7.4km/h 53% 0in /  0.0mm
07:09 74.7 °F /  23.7 °C 56.8 °F /  13.8 °C 29.9in /  1012.5hPa Oeste 2.9mph /  4.7km/h 4mph /  6.4km/h 54% 0in /  0.0mm
07:14 74.7 °F /  23.7 °C 56.8 °F /  13.8 °C 29.9in /  1012.5hPa Oeste 2.9mph /  4.7km/h 3.5mph /  5.6km/h 54% 0in /  0.0mm
07:19 74.7 °F /  23.7 °C 56.8 °F /  13.8 °C 29.9in /  1012.7hPa Oeste 2.4mph /  3.9km/h 3.5mph /  5.6km/h 54% 0in /  0.0mm
07:24 74.7 °F /  23.7 °C 56.8 °F /  13.8 °C 29.9in /  1012.7hPa Oeste 2.4mph /  3.9km/h 4.6mph /  7.4km/h 54% 0in /  0.0mm
07:29 74.7 °F /  23.7 °C 56.8 °F /  13.8 °C 29.9in /  1012.7hPa Oeste 2.9mph /  4.7km/h 3.6mph /  5.8km/h 54% 0in /  0.0mm
07:34 74.5 °F /  23.6 °C 56.1 °F /  13.4 °C 29.9in /  1012.6hPa Oeste 2.9mph /  4.7km/h 4.7mph /  7.6km/h 53% 0in /  0.0mm
07:39 74.7 °F /  23.7 °C 56.5 °F /  13.6 °C 29.9in /  1012.6hPa OSO 2.9mph /  4.7km/h 4.6mph /  7.4km/h 53% 0in /  0.0mm
07:44 74.7 °F /  23.7 °C 56.5 °F /  13.6 °C 29.9in /  1012.6hPa SSO 2.9mph /  4.7km/h 5.8mph /  9.3km/h 53% 0in /  0.0mm
07:49 74.8 °F /  23.8 °C 56.7 °F /  13.7 °C 29.9in /  1012.9hPa SSO 4mph /  6.4km/h 4.6mph /  7.4km/h 53% 0in /  0.0mm
07:54 75.2 °F /  24 °C 56.5 °F /  13.6 °C 29.9in /  1012.9hPa SSO 4mph /  6.4km/h 6.9mph /  11.1km/h 52% 0in /  0.0mm
07:59 75.6 °F /  24.2 °C 56.1 °F /  13.4 °C 29.9in /  1012.9hPa OSO 5.2mph /  8.4km/h 6.9mph /  11.1km/h 51% 0in /  0.0mm
08:04 75.7 °F /  24.3 °C 56.3 °F /  13.5 °C 29.9in /  1013.0hPa SSO 5.2mph /  8.4km/h 5.8mph /  9.3km/h 51% 0in /  0.0mm
08:09 75.9 °F /  24.4 °C 56.5 °F /  13.6 °C 29.9in /  1013.0hPa SO 4mph /  6.4km/h 5.8mph /  9.3km/h 51% 0in /  0.0mm
08:14 76.3 °F /  24.6 °C 56.8 °F /  13.8 °C 29.9in /  1013.0hPa SSO 4mph /  6.4km/h 5.8mph /  9.3km/h 51% 0in /  0.0mm
08:19 76.3 °F /  24.6 °C 56.8 °F /  13.8 °C 29.9in /  1013.2hPa SO 4.3mph /  6.9km/h 6.9mph /  11.1km/h 51% 0in /  0.0mm
08:24 76.3 °F /  24.6 °C 56.8 °F /  13.8 °C 29.9in /  1013.2hPa SO 4.3mph /  6.9km/h 5.8mph /  9.3km/h 51% 0in /  0.0mm
08:29 76.5 °F /  24.7 °C 56.5 °F /  13.6 °C 29.9in /  1013.2hPa OSO 4mph /  6.4km/h 6.4mph /  10.3km/h 50% 0in /  0.0mm
08:34 76.5 °F /  24.7 °C 56.5 °F /  13.6 °C 29.9in /  1013.1hPa SO 4mph /  6.4km/h 5.8mph /  9.3km/h 50% 0in /  0.0mm
08:39 76.5 °F /  24.7 °C 56.5 °F /  13.6 °C 29.9in /  1013.1hPa Oeste 4.3mph /  6.9km/h 5.8mph /  9.3km/h 50% 0in /  0.0mm
08:44 76.6 °F /  24.8 °C 56.7 °F /  13.7 °C 29.9in /  1013.1hPa OSO 4.3mph /  6.9km/h 5.8mph /  9.3km/h 50% 0in /  0.0mm
08:49 76.8 °F /  24.9 °C 56.1 °F /  13.4 °C 29.9in /  1013.1hPa SO 4mph /  6.4km/h 4.6mph /  7.4km/h 49% 0in /  0.0mm
08:54 77.2 °F /  25.1 °C 57 °F /  13.9 °C 29.9in /  1013.1hPa Oeste 4mph /  6.4km/h 4.6mph /  7.4km/h 50% 0in /  0.0mm
08:59 77.4 °F /  25.2 °C 57.4 °F /  14.1 °C 29.9in /  1013.1hPa Oeste 3.1mph /  5km/h 5.8mph /  9.3km/h 50% 0in /  0.0mm
09:04 77.7 °F /  25.4 °C 57 °F /  13.9 °C 29.9in /  1013.2hPa OSO 3.1mph /  5km/h 2.3mph /  3.7km/h 49% 0in /  0.0mm
09:09 78.3 °F /  25.7 °C 57 °F /  13.9 °C 29.9in /  1013.2hPa Oeste 2.9mph /  4.7km/h 5.8mph /  9.3km/h 48% 0in /  0.0mm
09:14 78.3 °F /  25.7 °C 56.5 °F /  13.6 °C 29.9in /  1013.2hPa SO 2.9mph /  4.7km/h 6.9mph /  11.1km/h 47% 0in /  0.0mm
09:19 78.3 °F /  25.7 °C 55.2 °F /  12.9 °C 29.9in /  1013.3hPa SO 5.4mph /  8.7km/h 10.4mph /  16.7km/h 45% 0in /  0.0mm
09:24 78.4 °F /  25.8 °C 55.2 °F /  12.9 °C 29.9in /  1013.3hPa SSE 5.4mph /  8.7km/h 8.1mph /  13km/h 45% 0in /  0.0mm
09:29 79 °F /  26.1 °C 55.8 °F /  13.2 °C 29.9in /  1013.3hPa SO 4.7mph /  7.6km/h 4.6mph /  7.4km/h 45% 0in /  0.0mm
09:34 79.5 °F /  26.4 °C 55.8 °F /  13.2 °C 29.9in /  1013.3hPa OSO 4.7mph /  7.6km/h 5.8mph /  9.3km/h 44% 0in /  0.0mm
09:39 79.9 °F /  26.6 °C 55.4 °F /  13 °C 29.9in /  1013.3hPa Oeste 3.6mph /  5.8km/h 6.2mph /  10km/h 43% 0in /  0.0mm
09:44 80.1 °F /  26.7 °C 55.6 °F /  13.1 °C 29.9in /  1013.3hPa Oeste 3.6mph /  5.8km/h 6.9mph /  11.1km/h 43% 0in /  0.0mm
09:49 80.2 °F /  26.8 °C 55 °F /  12.8 °C 29.9in /  1013.2hPa SSO 4.3mph /  6.9km/h 5.9mph /  9.5km/h 42% 0in /  0.0mm
09:54 80.2 °F /  26.8 °C 55.8 °F /  13.2 °C 29.9in /  1013.2hPa SO 4.3mph /  6.9km/h 4.6mph /  7.4km/h 43% 0in /  0.0mm
09:59 80.8 °F /  27.1 °C 55.6 °F /  13.1 °C 29.9in /  1013.2hPa OSO 3.6mph /  5.8km/h 6.9mph /  11.1km/h 42% 0in /  0.0mm
10:04 81.1 °F /  27.3 °C 55.2 °F /  12.9 °C 29.9in /  1013.2hPa SO 3.6mph /  5.8km/h 8.1mph /  13km/h 41% 0in /  0.0mm
10:09 81.3 °F /  27.4 °C 55.4 °F /  13 °C 29.9in /  1013.2hPa OSO 4mph /  6.4km/h 4.6mph /  7.4km/h 41% 0in /  0.0mm
10:14 81.9 °F /  27.7 °C 54.5 °F /  12.5 °C 29.9in /  1013.2hPa SO 4mph /  6.4km/h 5.2mph /  8.4km/h 39% 0in /  0.0mm
10:19 82.2 °F /  27.9 °C 54.1 °F /  12.3 °C 29.9in /  1013.1hPa SO 4mph /  6.4km/h 5.8mph /  9.3km/h 38% 0in /  0.0mm
10:24 82.6 °F /  28.1 °C 54.3 °F /  12.4 °C 29.9in /  1013.1hPa SO 4mph /  6.4km/h 8.1mph /  13km/h 38% 0in /  0.0mm
10:29 82.8 °F /  28.2 °C 54.7 °F /  12.6 °C 29.9in /  1013.1hPa SO 3.6mph /  5.8km/h 5.8mph /  9.3km/h 38% 0in /  0.0mm
10:34 83.3 °F /  28.5 °C 54.3 °F /  12.4 °C 29.9in /  1013.0hPa ONO 3.6mph /  5.8km/h 4.7mph /  7.6km/h 37% 0in /  0.0mm
10:39 83.8 °F /  28.8 °C 54.9 °F /  12.7 °C 29.9in /  1013.0hPa ONO 2.9mph /  4.7km/h 2.3mph /  3.7km/h 37% 0in /  0.0mm
10:44 84.6 °F /  29.2 °C 54.7 °F /  12.6 °C 29.9in /  1013.0hPa Sur 2.9mph /  4.7km/h 2.3mph /  3.7km/h 36% 0in /  0.0mm
10:49 84.9 °F /  29.4 °C 54.1 °F /  12.3 °C 29.9in /  1013.1hPa Oeste 2mph /  3.2km/h 3.5mph /  5.6km/h 35% 0in /  0.0mm
10:54 85.5 °F /  29.7 °C 54.7 °F /  12.6 °C 29.9in /  1013.1hPa SO 2mph /  3.2km/h 3.6mph /  5.8km/h 35% 0in /  0.0mm
10:59 85.8 °F /  29.9 °C 54.1 °F /  12.3 °C 29.9in /  1013.1hPa OSO 2mph /  3.2km/h 3.1mph /  5km/h 34% 0in /  0.0mm
11:04 86.5 °F /  30.3 °C 54 °F /  12.2 °C 29.9in /  1013.1hPa OSO 2mph /  3.2km/h 2.3mph /  3.7km/h 33% 0in /  0.0mm
11:09 87.4 °F /  30.8 °C 54 °F /  12.2 °C 29.9in /  1013.1hPa ENE 1.4mph /  2.3km/h 4.6mph /  7.4km/h 32% 0in /  0.0mm
11:14 88.2 °F /  31.2 °C 54.7 °F /  12.6 °C 29.9in /  1013.1hPa ESE 1.4mph /  2.3km/h 3.5mph /  5.6km/h 32% 0in /  0.0mm
11:19 88.7 °F /  31.5 °C 54.1 °F /  12.3 °C 29.9in /  1013.1hPa NNE 2mph /  3.2km/h 5.8mph /  9.3km/h 31% 0in /  0.0mm
11:24 88.9 °F /  31.6 °C 54.3 °F /  12.4 °C 29.9in /  1013.1hPa NO 2mph /  3.2km/h 2.3mph /  3.7km/h 31% 0in /  0.0mm
11:29 89.2 °F /  31.8 °C 53.8 °F /  12.1 °C 29.9in /  1013.1hPa NNE 2.4mph /  3.9km/h 4.6mph /  7.4km/h 30% 0in /  0.0mm
11:34 89.2 °F /  31.8 °C 52.9 °F /  11.6 °C 29.9in /  1012.9hPa North 2.4mph /  3.9km/h 6.9mph /  11.1km/h 29% 0in /  0.0mm
11:39 88.9 °F /  31.6 °C 52.5 °F /  11.4 °C 29.9in /  1012.9hPa NE 4mph /  6.4km/h 6.9mph /  11.1km/h 29% 0in /  0.0mm
11:44 88.9 °F /  31.6 °C 52.5 °F /  11.4 °C 29.9in /  1012.9hPa NE 4mph /  6.4km/h 7.4mph /  11.9km/h 29% 0in /  0.0mm
11:49 88.7 °F /  31.5 °C 53.2 °F /  11.8 °C 29.9in /  1012.8hPa ENE 5.4mph /  8.7km/h 9.2mph /  14.8km/h 30% 0in /  0.0mm
11:54 89.1 °F /  31.7 °C 52.7 °F /  11.5 °C 29.9in /  1012.8hPa NE 5.4mph /  8.7km/h 8.5mph /  13.7km/h 29% 0in /  0.0mm
11:59 89.1 °F /  31.7 °C 53.6 °F /  12 °C 29.9in /  1012.8hPa NNE 5.2mph /  8.4km/h 10.4mph /  16.7km/h 30% 0in /  0.0mm
12:04 89.4 °F /  31.9 °C 54 °F /  12.2 °C 29.9in /  1012.8hPa NE 5.2mph /  8.4km/h 10.7mph /  17.2km/h 30% 0in /  0.0mm
12:09 89.4 °F /  31.9 °C 54 °F /  12.2 °C 29.9in /  1012.8hPa NE 6.4mph /  10.3km/h 9.2mph /  14.8km/h 30% 0in /  0.0mm
12:14 89.4 °F /  31.9 °C 54.9 °F /  12.7 °C 29.9in /  1012.8hPa NNE 6.4mph /  10.3km/h 8.1mph /  13km/h 31% 0in /  0.0mm
12:19 89.8 °F /  32.1 °C 55 °F /  12.8 °C 29.9in /  1012.7hPa NE 6.4mph /  10.3km/h 13.8mph /  22.2km/h 31% 0in /  0.0mm
12:24 89.8 °F /  32.1 °C 55 °F /  12.8 °C 29.9in /  1012.7hPa Este 6.4mph /  10.3km/h 6.9mph /  11.1km/h 31% 0in /  0.0mm
12:29 90 °F /  32.2 °C 55.2 °F /  12.9 °C 29.9in /  1012.7hPa NE 6.9mph /  11.1km/h 8.1mph /  13km/h 31% 0in /  0.0mm
12:34 90 °F /  32.2 °C 55.2 °F /  12.9 °C 29.9in /  1012.5hPa NNE 6.9mph /  11.1km/h 9.2mph /  14.8km/h 31% 0in /  0.0mm
12:39 90.5 °F /  32.5 °C 55.8 °F /  13.2 °C 29.9in /  1012.5hPa ENE 5.4mph /  8.7km/h 8.1mph /  13km/h 31% 0in /  0.0mm
12:44 91 °F /  32.8 °C 55.2 °F /  12.9 °C 29.9in /  1012.5hPa North 5.4mph /  8.7km/h 9.2mph /  14.8km/h 30% 0in /  0.0mm
12:49 91.4 °F /  33 °C 55.6 °F /  13.1 °C 29.9in /  1012.3hPa NE 6.4mph /  10.3km/h 12.7mph /  20.4km/h 30% 0in /  0.0mm
12:54 91 °F /  32.8 °C 55.2 °F /  12.9 °C 29.9in /  1012.3hPa NNE 6.4mph /  10.3km/h 13.8mph /  22.2km/h 30% 0in /  0.0mm
12:59 91.2 °F /  32.9 °C 55.6 °F /  13.1 °C 29.9in /  1012.3hPa NE 8.1mph /  13km/h 10.4mph /  16.7km/h 30% 0in /  0.0mm
13:04 91.2 °F /  32.9 °C 56.5 °F /  13.6 °C 29.9in /  1012.3hPa NE 8.1mph /  13km/h 11.5mph /  18.5km/h 31% 0in /  0.0mm
13:09 91.4 °F /  33 °C 58.3 °F /  14.6 °C 29.9in /  1012.3hPa NE 8.5mph /  13.7km/h 12.7mph /  20.4km/h 33% 0in /  0.0mm
13:14 91.6 °F /  33.1 °C 59.2 °F /  15.1 °C 29.9in /  1012.3hPa Este 8.5mph /  13.7km/h 10.4mph /  16.7km/h 34% 0in /  0.0mm
13:19 91.6 °F /  33.1 °C 58.5 °F /  14.7 °C 29.9in /  1012.2hPa ENE 7.6mph /  12.2km/h 13mph /  20.9km/h 33% 0in /  0.0mm
13:24 91.8 °F /  33.2 °C 58.6 °F /  14.8 °C 29.9in /  1012.2hPa ENE 7.6mph /  12.2km/h 13.8mph /  22.2km/h 33% 0in /  0.0mm
13:29 91.6 °F /  33.1 °C 59.2 °F /  15.1 °C 29.9in /  1012.2hPa North 9.2mph /  14.8km/h 8.1mph /  13km/h 34% 0in /  0.0mm
13:34 91.9 °F /  33.3 °C 58.6 °F /  14.8 °C 29.9in /  1012.1hPa NE 9.2mph /  14.8km/h 11.5mph /  18.5km/h 33% 0in /  0.0mm
13:39 92.5 °F /  33.6 °C 58.3 °F /  14.6 °C 29.9in /  1012.1hPa NE 7.4mph /  11.9km/h 10.7mph /  17.2km/h 32% 0in /  0.0mm
13:44 92.1 °F /  33.4 °C 57.9 °F /  14.4 °C 29.9in /  1012.1hPa NNE 7.4mph /  11.9km/h 12.7mph /  20.4km/h 32% 0in /  0.0mm
13:49 91.8 °F /  33.2 °C 57.7 °F /  14.3 °C 29.9in /  1012.1hPa ENE 8.7mph /  14km/h 12.7mph /  20.4km/h 32% 0in /  0.0mm
13:54 91.8 °F /  33.2 °C 58.6 °F /  14.8 °C 29.9in /  1012.1hPa ESE 8.7mph /  14km/h 13.8mph /  22.2km/h 33% 0in /  0.0mm
13:59 91.9 °F /  33.3 °C 58.6 °F /  14.8 °C 29.9in /  1012.1hPa Este 7.4mph /  11.9km/h 15mph /  24.1km/h 33% 0in /  0.0mm
14:04 91.8 °F /  33.2 °C 58.6 °F /  14.8 °C 29.9in /  1012.1hPa ENE 7.4mph /  11.9km/h 11.8mph /  19km/h 33% 0in /  0.0mm
14:09 91.9 °F /  33.3 °C 57.9 °F /  14.4 °C 29.9in /  1012.1hPa NE 9.7mph /  15.6km/h 16.1mph /  25.9km/h 32% 0in /  0.0mm
14:14 91.9 °F /  33.3 °C 59.5 °F /  15.3 °C 29.9in /  1012.1hPa North 9.7mph /  15.6km/h 12.7mph /  20.4km/h 34% 0in /  0.0mm
14:19 92.1 °F /  33.4 °C 59.7 °F /  15.4 °C 29.9in /  1011.9hPa NNE 10mph /  16.1km/h 13mph /  20.9km/h 34% 0in /  0.0mm
14:24 92.7 °F /  33.7 °C 58.5 °F /  14.7 °C 29.9in /  1011.9hPa Este 10mph /  16.1km/h 10.4mph /  16.7km/h 32% 0in /  0.0mm
14:29 92.7 °F /  33.7 °C 58.5 °F /  14.7 °C 29.9in /  1011.9hPa ENE 8.1mph /  13km/h 13.8mph /  22.2km/h 32% 0in /  0.0mm
14:34 92.7 °F /  33.7 °C 58.5 °F /  14.7 °C 29.9in /  1011.8hPa NNE 8.1mph /  13km/h 11.5mph /  18.5km/h 32% 0in /  0.0mm
14:39 92.7 °F /  33.7 °C 58.5 °F /  14.7 °C 29.9in /  1011.8hPa NE 9.2mph /  14.8km/h 10.4mph /  16.7km/h 32% 0in /  0.0mm
14:44 92.8 °F /  33.8 °C 58.6 °F /  14.8 °C 29.9in /  1011.8hPa Este 9.2mph /  14.8km/h 9.2mph /  14.8km/h 32% 0in /  0.0mm
14:49 92.8 °F /  33.8 °C 58.6 °F /  14.8 °C 29.9in /  1011.7hPa NNE 8.5mph /  13.7km/h 14mph /  22.5km/h 32% 0in /  0.0mm
14:54 92.8 °F /  33.8 °C 58.6 °F /  14.8 °C 29.9in /  1011.7hPa NNE 8.5mph /  13.7km/h 15mph /  24.1km/h 32% 0in /  0.0mm
14:59 93 °F /  33.9 °C 58.8 °F /  14.9 °C 29.9in /  1011.7hPa NE 9.2mph /  14.8km/h 17.3mph /  27.8km/h 32% 0in /  0.0mm
15:04 92.7 °F /  33.7 °C 58.5 °F /  14.7 °C 29.9in /  1011.6hPa ENE 9.2mph /  14.8km/h 13.8mph /  22.2km/h 32% 0in /  0.0mm
15:09 92.7 °F /  33.7 °C 58.5 °F /  14.7 °C 29.9in /  1011.6hPa NE 10.7mph /  17.2km/h 15mph /  24.1km/h 32% 0in /  0.0mm
15:14 92.8 °F /  33.8 °C 58.6 °F /  14.8 °C 29.9in /  1011.6hPa NE 10.7mph /  17.2km/h 16.1mph /  25.9km/h 32% 0in /  0.0mm
15:19 93 °F /  33.9 °C 58.8 °F /  14.9 °C 29.9in /  1011.5hPa NE 10.2mph /  16.4km/h 17.5mph /  28.2km/h 32% 0in /  0.0mm
15:24 92.8 °F /  33.8 °C 58.6 °F /  14.8 °C 29.9in /  1011.5hPa NNE 10.2mph /  16.4km/h 15mph /  24.1km/h 32% 0in /  0.0mm
15:29 92.8 °F /  33.8 °C 57.7 °F /  14.3 °C 29.9in /  1011.5hPa NE 10.2mph /  16.4km/h 16.3mph /  26.2km/h 31% 0in /  0.0mm
15:34 92.8 °F /  33.8 °C 58.6 °F /  14.8 °C 29.9in /  1011.4hPa NE 10.2mph /  16.4km/h 15mph /  24.1km/h 32% 0in /  0.0mm
15:39 93.2 °F /  34 °C 58.1 °F /  14.5 °C 29.9in /  1011.4hPa NE 9.7mph /  15.6km/h 16.1mph /  25.9km/h 31% 0in /  0.0mm
15:44 93.4 °F /  34.1 °C 58.3 °F /  14.6 °C 29.9in /  1011.4hPa ENE 9.7mph /  15.6km/h 13.8mph /  22.2km/h 31% 0in /  0.0mm
15:49 92.8 °F /  33.8 °C 57.7 °F /  14.3 °C 29.9in /  1011.2hPa NE 10.7mph /  17.2km/h 16.1mph /  25.9km/h 31% 0in /  0.0mm
15:54 93.2 °F /  34 °C 59 °F /  15 °C 29.9in /  1011.2hPa Este 10.7mph /  17.2km/h 9.2mph /  14.8km/h 32% 0in /  0.0mm
15:59 93.4 °F /  34.1 °C 58.3 °F /  14.6 °C 29.9in /  1011.2hPa NNE 8.7mph /  14km/h 17.3mph /  27.8km/h 31% 0in /  0.0mm
16:04 93 °F /  33.9 °C 58.8 °F /  14.9 °C 29.9in /  1011.1hPa ESE 8.7mph /  14km/h 13mph /  20.9km/h 32% 0in /  0.0mm
16:09 92.8 °F /  33.8 °C 58.6 °F /  14.8 °C 29.9in /  1011.1hPa ENE 10.2mph /  16.4km/h 16.1mph /  25.9km/h 32% 0in /  0.0mm
16:14 93 °F /  33.9 °C 57.9 °F /  14.4 °C 29.9in /  1011.1hPa NE 10.2mph /  16.4km/h 15mph /  24.1km/h 31% 0in /  0.0mm
16:19 92.8 °F /  33.8 °C 58.6 °F /  14.8 °C 29.9in /  1010.9hPa Este 9.7mph /  15.6km/h 13.8mph /  22.2km/h 32% 0in /  0.0mm
16:24 93.2 °F /  34 °C 58.1 °F /  14.5 °C 29.9in /  1010.9hPa ENE 9.7mph /  15.6km/h 16.1mph /  25.9km/h 31% 0in /  0.0mm
16:29 92.8 °F /  33.8 °C 58.6 °F /  14.8 °C 29.9in /  1010.9hPa ENE 9.7mph /  15.6km/h 16.1mph /  25.9km/h 32% 0in /  0.0mm
16:34 92.8 °F /  33.8 °C 58.6 °F /  14.8 °C 29.9in /  1010.9hPa ENE 9.7mph /  15.6km/h 15mph /  24.1km/h 32% 0in /  0.0mm
16:39 93 °F /  33.9 °C 58.8 °F /  14.9 °C 29.9in /  1010.9hPa NNE 9.2mph /  14.8km/h 16.3mph /  26.2km/h 32% 0in /  0.0mm
16:44 93 °F /  33.9 °C 58.8 °F /  14.9 °C 29.9in /  1010.9hPa SSE 9.2mph /  14.8km/h 19.6mph /  31.5km/h 32% 0in /  0.0mm
16:49 92.7 °F /  33.7 °C 58.5 °F /  14.7 °C 29.8in /  1010.7hPa NNE 10.2mph /  16.4km/h 15mph /  24.1km/h 32% 0in /  0.0mm
16:54 92.7 °F /  33.7 °C 58.5 °F /  14.7 °C 29.8in /  1010.7hPa NE 10.2mph /  16.4km/h 13.8mph /  22.2km/h 32% 0in /  0.0mm
16:59 92.8 °F /  33.8 °C 58.6 °F /  14.8 °C 29.8in /  1010.7hPa NE 10.7mph /  17.2km/h 15mph /  24.1km/h 32% 0in /  0.0mm
17:04 93 °F /  33.9 °C 58.8 °F /  14.9 °C 29.8in /  1010.7hPa Este 10.7mph /  17.2km/h 12.5mph /  20.1km/h 32% 0in /  0.0mm
17:09 93.2 °F /  34 °C 59 °F /  15 °C 29.8in /  1010.7hPa NE 10mph /  16.1km/h 10.4mph /  16.7km/h 32% 0in /  0.0mm
17:14 92.8 °F /  33.8 °C 58.6 °F /  14.8 °C 29.8in /  1010.7hPa ENE 10mph /  16.1km/h 19.6mph /  31.5km/h 32% 0in /  0.0mm
17:19 92.5 °F /  33.6 °C 58.3 °F /  14.6 °C 29.8in /  1010.5hPa NE 10.2mph /  16.4km/h 20.8mph /  33.5km/h 32% 0in /  0.0mm
17:24 92.5 °F /  33.6 °C 59.2 °F /  15.1 °C 29.8in /  1010.5hPa NE 10.2mph /  16.4km/h 17.5mph /  28.2km/h 33% 0in /  0.0mm
17:29 92.3 °F /  33.5 °C 59 °F /  15 °C 29.8in /  1010.5hPa ENE 12.3mph /  19.8km/h 13.8mph /  22.2km/h 33% 0in /  0.0mm
17:34 92.5 °F /  33.6 °C 58.3 °F /  14.6 °C 29.8in /  1010.5hPa NE 12.3mph /  19.8km/h 18.4mph /  29.6km/h 32% 0in /  0.0mm
17:39 92.5 °F /  33.6 °C 58.3 °F /  14.6 °C 29.8in /  1010.5hPa Este 10.2mph /  16.4km/h 16.1mph /  25.9km/h 32% 0in /  0.0mm
17:44 92.8 °F /  33.8 °C 58.6 °F /  14.8 °C 29.8in /  1010.5hPa ENE 10.2mph /  16.4km/h 15mph /  24.1km/h 32% 0in /  0.0mm
17:49 93 °F /  33.9 °C 58.8 °F /  14.9 °C 29.8in /  1010.3hPa ESE 8.1mph /  13km/h 9.2mph /  14.8km/h 32% 0in /  0.0mm
17:54 93.2 °F /  34 °C 59 °F /  15 °C 29.8in /  1010.3hPa ENE 8.1mph /  13km/h 11.5mph /  18.5km/h 32% 0in /  0.0mm
17:59 93 °F /  33.9 °C 57.9 °F /  14.4 °C 29.8in /  1010.3hPa Este 7.6mph /  12.2km/h 12.7mph /  20.4km/h 31% 0in /  0.0mm
18:04 92.8 °F /  33.8 °C 58.6 °F /  14.8 °C 29.8in /  1010.2hPa ENE 7.6mph /  12.2km/h 13.8mph /  22.2km/h 32% 0in /  0.0mm
18:09 92.5 °F /  33.6 °C 58.3 °F /  14.6 °C 29.8in /  1010.2hPa NNE 8.7mph /  14km/h 16.1mph /  25.9km/h 32% 0in /  0.0mm
18:14 92.7 °F /  33.7 °C 58.5 °F /  14.7 °C 29.8in /  1010.2hPa ENE 8.7mph /  14km/h 16.8mph /  27km/h 32% 0in /  0.0mm
18:19 92.7 °F /  33.7 °C 58.5 °F /  14.7 °C 29.8in /  1010.2hPa ENE 9.2mph /  14.8km/h 13.8mph /  22.2km/h 32% 0in /  0.0mm
18:24 92.5 °F /  33.6 °C 58.3 °F /  14.6 °C 29.8in /  1010.2hPa NE 9.2mph /  14.8km/h 15.9mph /  25.6km/h 32% 0in /  0.0mm
18:29 92.3 °F /  33.5 °C 58.3 °F /  14.6 °C 29.8in /  1010.2hPa ENE 8.7mph /  14km/h 14.7mph /  23.7km/h 32% 0in /  0.0mm
18:34 91.9 °F /  33.3 °C 57.9 °F /  14.4 °C 29.8in /  1010.1hPa ENE 8.7mph /  14km/h 15mph /  24.1km/h 32% 0in /  0.0mm
18:39 91.9 °F /  33.3 °C 57.9 °F /  14.4 °C 29.8in /  1010.1hPa Este 10mph /  16.1km/h 12.7mph /  20.4km/h 32% 0in /  0.0mm
18:44 91.9 °F /  33.3 °C 58.6 °F /  14.8 °C 29.8in /  1010.1hPa NE 10mph /  16.1km/h 8.1mph /  13km/h 33% 0in /  0.0mm
18:49 91.8 °F /  33.2 °C 58.6 °F /  14.8 °C 29.8in /  1010.0hPa NE 9.2mph /  14.8km/h 13.8mph /  22.2km/h 33% 0in /  0.0mm
18:54 91.9 °F /  33.3 °C 59.5 °F /  15.3 °C 29.8in /  1010.0hPa Este 9.2mph /  14.8km/h 16.1mph /  25.9km/h 34% 0in /  0.0mm
18:59 91.9 °F /  33.3 °C 58.6 °F /  14.8 °C 29.8in /  1010.0hPa NE 7.6mph /  12.2km/h 12.7mph /  20.4km/h 33% 0in /  0.0mm
19:04 91.6 °F /  33.1 °C 59.2 °F /  15.1 °C 29.8in /  1009.9hPa ENE 7.6mph /  12.2km/h 12.7mph /  20.4km/h 34% 0in /  0.0mm
19:09 91.2 °F /  32.9 °C 58.8 °F /  14.9 °C 29.8in /  1009.9hPa ENE 8.5mph /  13.7km/h 16.1mph /  25.9km/h 34% 0in /  0.0mm
19:14 91 °F /  32.8 °C 59.5 °F /  15.3 °C 29.8in /  1009.9hPa NNE 8.5mph /  13.7km/h 11.2mph /  18km/h 35% 0in /  0.0mm
19:19 91 °F /  32.8 °C 59.5 °F /  15.3 °C 29.8in /  1009.9hPa NNE 8.7mph /  14km/h 12.7mph /  20.4km/h 35% 0in /  0.0mm
19:24 90.9 °F /  32.7 °C 59.4 °F /  15.2 °C 29.8in /  1009.9hPa NNE 8.7mph /  14km/h 12.7mph /  20.4km/h 35% 0in /  0.0mm
19:29 90.5 °F /  32.5 °C 59.9 °F /  15.5 °C 29.8in /  1009.9hPa NE 9.7mph /  15.6km/h 12.7mph /  20.4km/h 36% 0in /  0.0mm
19:34 90.7 °F /  32.6 °C 60.1 °F /  15.6 °C 29.8in /  1009.9hPa NE 9.7mph /  15.6km/h 9.2mph /  14.8km/h 36% 0in /  0.0mm
19:39 90.5 °F /  32.5 °C 59.9 °F /  15.5 °C 29.8in /  1009.9hPa ENE 7.4mph /  11.9km/h 13.8mph /  22.2km/h 36% 0in /  0.0mm
19:44 90.3 °F /  32.4 °C 60.4 °F /  15.8 °C 29.8in /  1009.9hPa NE 7.4mph /  11.9km/h 12.5mph /  20.1km/h 37% 0in /  0.0mm
19:49 90 °F /  32.2 °C 60.3 °F /  15.7 °C 29.8in /  1009.9hPa NE 8.1mph /  13km/h 10.7mph /  17.2km/h 37% 0in /  0.0mm
19:54 89.8 °F /  32.1 °C 60.8 °F /  16 °C 29.8in /  1009.9hPa North 8.1mph /  13km/h 8.1mph /  13km/h 38% 0in /  0.0mm
19:59 89.2 °F /  31.8 °C 61 °F /  16.1 °C 29.8in /  1009.9hPa ENE 7.6mph /  12.2km/h 15mph /  24.1km/h 39% 0in /  0.0mm
20:04 88.9 °F /  31.6 °C 62.1 °F /  16.7 °C 29.8in /  1010.1hPa Este 7.6mph /  12.2km/h 12.7mph /  20.4km/h 41% 0in /  0.0mm
20:09 88.5 °F /  31.4 °C 61.9 °F /  16.6 °C 29.8in /  1010.1hPa NE 7.6mph /  12.2km/h 10.4mph /  16.7km/h 41% 0in /  0.0mm
20:14 88.3 °F /  31.3 °C 61.7 °F /  16.5 °C 29.8in /  1010.1hPa ENE 7.6mph /  12.2km/h 9.2mph /  14.8km/h 41% 0in /  0.0mm
20:19 88 °F /  31.1 °C 62.1 °F /  16.7 °C 29.8in /  1010.2hPa ENE 5.4mph /  8.7km/h 7.6mph /  12.2km/h 42% 0in /  0.0mm
20:24 87.6 °F /  30.9 °C 61.7 °F /  16.5 °C 29.8in /  1010.2hPa NE 5.4mph /  8.7km/h 11.5mph /  18.5km/h 42% 0in /  0.0mm
20:29 87.3 °F /  30.7 °C 62.1 °F /  16.7 °C 29.8in /  1010.2hPa ENE 6.2mph /  10km/h 12.7mph /  20.4km/h 43% 0in /  0.0mm
20:34 87.1 °F /  30.6 °C 61.9 °F /  16.6 °C 29.8in /  1010.3hPa NE 6.2mph /  10km/h 12.7mph /  20.4km/h 43% 0in /  0.0mm
20:39 86.7 °F /  30.4 °C 62.2 °F /  16.8 °C 29.8in /  1010.3hPa NE 6.9mph /  11.1km/h 12.3mph /  19.8km/h 44% 0in /  0.0mm
20:44 86.4 °F /  30.2 °C 62.4 °F /  16.9 °C 29.8in /  1010.3hPa NE 6.9mph /  11.1km/h 8.1mph /  13km/h 45% 0in /  0.0mm
20:49 86.2 °F /  30.1 °C 63 °F /  17.2 °C 29.8in /  1010.4hPa NE 6.9mph /  11.1km/h 8.1mph /  13km/h 46% 0in /  0.0mm
20:54 85.6 °F /  29.8 °C 62.4 °F /  16.9 °C 29.8in /  1010.4hPa NE 6.9mph /  11.1km/h 9.2mph /  14.8km/h 46% 0in /  0.0mm
20:59 85.6 °F /  29.8 °C 62.4 °F /  16.9 °C 29.8in /  1010.4hPa ENE 6.2mph /  10km/h 10.4mph /  16.7km/h 46% 0in /  0.0mm
21:04 85.3 °F /  29.6 °C 62.8 °F /  17.1 °C 29.8in /  1010.6hPa NE 6.2mph /  10km/h 6.9mph /  11.1km/h 47% 0in /  0.0mm
21:09 84.9 °F /  29.4 °C 63 °F /  17.2 °C 29.8in /  1010.6hPa ENE 6.2mph /  10km/h 6.9mph /  11.1km/h 48% 0in /  0.0mm
21:14 84.7 °F /  29.3 °C 63 °F /  17.2 °C 29.8in /  1010.6hPa NNE 6.2mph /  10km/h 9.2mph /  14.8km/h 48% 0in /  0.0mm
21:19 84.4 °F /  29.1 °C 63.1 °F /  17.3 °C 29.8in /  1010.7hPa Este 6.2mph /  10km/h 10.4mph /  16.7km/h 49% 0in /  0.0mm
21:24 84 °F /  28.9 °C 63.9 °F /  17.7 °C 29.8in /  1010.7hPa ENE 6.2mph /  10km/h 8.1mph /  13km/h 51% 0in /  0.0mm
21:29 83.7 °F /  28.7 °C 64.2 °F /  17.9 °C 29.8in /  1010.7hPa NNE 6.2mph /  10km/h 10.4mph /  16.7km/h 52% 0in /  0.0mm
21:34 83.3 °F /  28.5 °C 64.4 °F /  18 °C 29.8in /  1010.7hPa NE 6.2mph /  10km/h 9.2mph /  14.8km/h 53% 0in /  0.0mm
21:39 82.9 °F /  28.3 °C 64.6 °F /  18.1 °C 29.8in /  1010.7hPa NNE 6.2mph /  10km/h 10.4mph /  16.7km/h 54% 0in /  0.0mm
21:44 82.8 °F /  28.2 °C 64.9 °F /  18.3 °C 29.8in /  1010.7hPa North 6.2mph /  10km/h 6.9mph /  11.1km/h 55% 0in /  0.0mm
21:49 82.6 °F /  28.1 °C 65.8 °F /  18.8 °C 29.9in /  1010.9hPa NNE 5.9mph /  9.5km/h 9.2mph /  14.8km/h 57% 0in /  0.0mm
21:54 82.2 °F /  27.9 °C 66 °F /  18.9 °C 29.9in /  1010.9hPa North 5.9mph /  9.5km/h 8.1mph /  13km/h 58% 0in /  0.0mm
21:59 81.9 °F /  27.7 °C 66.6 °F /  19.2 °C 29.9in /  1010.9hPa NNE 5.9mph /  9.5km/h 6.9mph /  11.1km/h 60% 0in /  0.0mm
22:04 81.7 °F /  27.6 °C 67.5 °F /  19.7 °C 29.9in /  1011.0hPa North 5.9mph /  9.5km/h 9.2mph /  14.8km/h 62% 0in /  0.0mm
22:09 81.3 °F /  27.4 °C 68 °F /  20 °C 29.9in /  1011.0hPa NNE 6.4mph /  10.3km/h 10.4mph /  16.7km/h 64% 0in /  0.0mm
22:14 81.1 °F /  27.3 °C 68.7 °F /  20.4 °C 29.9in /  1011.0hPa NE 6.4mph /  10.3km/h 8.1mph /  13km/h 66% 0in /  0.0mm
22:19 81 °F /  27.2 °C 69.4 °F /  20.8 °C 29.9in /  1011.2hPa NNE 6.2mph /  10km/h 10.4mph /  16.7km/h 68% 0in /  0.0mm
22:24 80.8 °F /  27.1 °C 70.2 °F /  21.2 °C 29.9in /  1011.2hPa NE 6.2mph /  10km/h 8.1mph /  13km/h 70% 0in /  0.0mm
22:29 80.6 °F /  27 °C 70.3 °F /  21.3 °C 29.9in /  1011.2hPa NNE 6.4mph /  10.3km/h 9.2mph /  14.8km/h 71% 0in /  0.0mm
22:34 80.4 °F /  26.9 °C 70.5 °F /  21.4 °C 29.9in /  1011.4hPa NE 6.4mph /  10.3km/h 9.2mph /  14.8km/h 72% 0in /  0.0mm
22:39 80.2 °F /  26.8 °C 70.9 °F /  21.6 °C 29.9in /  1011.4hPa NE 5.4mph /  8.7km/h 8.5mph /  13.7km/h 73% 0in /  0.0mm
22:44 80.1 °F /  26.7 °C 71.1 °F /  21.7 °C 29.9in /  1011.4hPa NNE 5.4mph /  8.7km/h 6.9mph /  11.1km/h 74% 0in /  0.0mm
22:49 80.1 °F /  26.7 °C 71.8 °F /  22.1 °C 29.9in /  1011.7hPa ENE 5.4mph /  8.7km/h 9.2mph /  14.8km/h 76% 0in /  0.0mm
22:54 79.9 °F /  26.6 °C 72 °F /  22.2 °C 29.9in /  1011.7hPa NNE 5.4mph /  8.7km/h 9.2mph /  14.8km/h 77% 0in /  0.0mm
22:59 79.5 °F /  26.4 °C 72.1 °F /  22.3 °C 29.9in /  1011.7hPa NE 5.9mph /  9.5km/h 5.8mph /  9.3km/h 78% 0in /  0.0mm
23:04 79.5 °F /  26.4 °C 72.3 °F /  22.4 °C 29.9in /  1011.9hPa NNE 5.9mph /  9.5km/h 5.9mph /  9.5km/h 79% 0in /  0.0mm
23:09 79.3 °F /  26.3 °C 72.3 °F /  22.4 °C 29.9in /  1011.9hPa ENE 4.3mph /  6.9km/h 6.9mph /  11.1km/h 79% 0in /  0.0mm
23:14 79.3 °F /  26.3 °C 72.7 °F /  22.6 °C 29.9in /  1011.9hPa NE 4.3mph /  6.9km/h 8.1mph /  13km/h 80% 0in /  0.0mm
23:19 79.2 °F /  26.2 °C 72.5 °F /  22.5 °C 29.9in /  1012.0hPa NE 4.7mph /  7.6km/h 8.1mph /  13km/h 80% 0in /  0.0mm
23:24 79.2 °F /  26.2 °C 72.5 °F /  22.5 °C 29.9in /  1012.0hPa NE 4.7mph /  7.6km/h 7.4mph /  11.9km/h 80% 0in /  0.0mm
23:29 79 °F /  26.1 °C 72.7 °F /  22.6 °C 29.9in /  1012.0hPa NE 5.4mph /  8.7km/h 8.1mph /  13km/h 81% 0in /  0.0mm
23:34 78.8 °F /  26 °C 72.5 °F /  22.5 °C 29.9in /  1012.0hPa Este 5.4mph /  8.7km/h 6.9mph /  11.1km/h 81% 0in /  0.0mm
23:39 78.8 °F /  26 °C 72.5 °F /  22.5 °C 29.9in /  1012.0hPa ENE 5.9mph /  9.5km/h 6.9mph /  11.1km/h 81% 0in /  0.0mm
23:44 78.6 °F /  25.9 °C 72.3 °F /  22.4 °C 29.9in /  1012.0hPa ENE 5.9mph /  9.5km/h 6.9mph /  11.1km/h 81% 0in /  0.0mm
23:49 78.6 °F /  25.9 °C 72.3 °F /  22.4 °C 29.9in /  1011.9hPa NE 5.2mph /  8.4km/h 6.9mph /  11.1km/h 81% 0in /  0.0mm
23:54 78.4 °F /  25.8 °C 72.1 °F /  22.3 °C 29.9in /  1011.9hPa NNE 5.2mph /  8.4km/h 8.7mph /  14km/h 81% 0in /  0.0mm
23:59 78.4 °F /  25.8 °C 72.5 °F /  22.5 °C 29.9in /  1011.9hPa NE 5.4mph /  8.7km/h 5.8mph /  9.3km/h 82% 0in /  0.0mm
Murcia-Puente Tocinos, España
Compliments of Weather Underground - 3 mb

La estación de MeteoMurcia.com, publica sus datos en los siguientes proyectos:

Weather Underground PWS IMURCIAP2 Meteoclimatic www.awekas.at

W3Counter
Web Analytics